sensor_id;sensor_type;location;lat;lon;timestamp;temperature;humidity
17740;DHT22;8990;33.226;-97.150;2024-03-02T00:01:45;18.30;99.90
17740;DHT22;8990;33.226;-97.150;2024-03-02T00:04:16;18.20;99.90
17740;DHT22;8990;33.226;-97.150;2024-03-02T00:06:45;18.20;99.90
17740;DHT22;8990;33.226;-97.150;2024-03-02T00:09:15;18.10;99.90
17740;DHT22;8990;33.226;-97.150;2024-03-02T00:11:44;18.10;99.90
17740;DHT22;8990;33.226;-97.150;2024-03-02T00:14:13;18.00;99.90
17740;DHT22;8990;33.226;-97.150;2024-03-02T00:16:42;17.90;99.90
17740;DHT22;8990;33.226;-97.150;2024-03-02T00:19:11;17.90;99.90
17740;DHT22;8990;33.226;-97.150;2024-03-02T00:21:42;17.80;99.90
17740;DHT22;8990;33.226;-97.150;2024-03-02T00:24:20;17.70;99.90
17740;DHT22;8990;33.226;-97.150;2024-03-02T00:26:50;17.60;99.90
17740;DHT22;8990;33.226;-97.150;2024-03-02T00:29:19;17.60;99.90
17740;DHT22;8990;33.226;-97.150;2024-03-02T00:31:48;17.50;99.90
17740;DHT22;8990;33.226;-97.150;2024-03-02T00:34:17;17.40;99.90
17740;DHT22;8990;33.226;-97.150;2024-03-02T00:36:48;17.40;99.90
17740;DHT22;8990;33.226;-97.150;2024-03-02T00:39:19;17.30;99.90
17740;DHT22;8990;33.226;-97.150;2024-03-02T00:41:47;17.20;99.90
17740;DHT22;8990;33.226;-97.150;2024-03-02T00:44:16;17.20;99.90
17740;DHT22;8990;33.226;-97.150;2024-03-02T00:46:46;17.10;99.90
17740;DHT22;8990;33.226;-97.150;2024-03-02T00:49:20;17.00;99.90
17740;DHT22;8990;33.226;-97.150;2024-03-02T00:51:52;17.00;99.90
17740;DHT22;8990;33.226;-97.150;2024-03-02T00:54:22;16.90;99.90
17740;DHT22;8990;33.226;-97.150;2024-03-02T00:56:52;16.90;99.90
17740;DHT22;8990;33.226;-97.150;2024-03-02T00:59:22;16.80;99.90
17740;DHT22;8990;33.226;-97.150;2024-03-02T01:01:53;16.80;99.90
17740;DHT22;8990;33.226;-97.150;2024-03-02T01:04:22;16.70;99.90
17740;DHT22;8990;33.226;-97.150;2024-03-02T01:06:52;16.70;99.90
17740;DHT22;8990;33.226;-97.150;2024-03-02T01:09:21;16.60;99.90
17740;DHT22;8990;33.226;-97.150;2024-03-02T01:11:50;16.60;99.90
17740;DHT22;8990;33.226;-97.150;2024-03-02T01:14:19;16.60;99.90
17740;DHT22;8990;33.226;-97.150;2024-03-02T01:16:48;16.50;99.90
17740;DHT22;8990;33.226;-97.150;2024-03-02T01:19:17;16.50;99.90
17740;DHT22;8990;33.226;-97.150;2024-03-02T01:21:46;16.40;99.90
17740;DHT22;8990;33.226;-97.150;2024-03-02T01:24:18;16.30;99.90
17740;DHT22;8990;33.226;-97.150;2024-03-02T01:26:47;16.30;99.90
17740;DHT22;8990;33.226;-97.150;2024-03-02T01:29:16;16.30;99.90
17740;DHT22;8990;33.226;-97.150;2024-03-02T01:31:46;16.30;99.90
17740;DHT22;8990;33.226;-97.150;2024-03-02T01:34:15;16.20;99.90
17740;DHT22;8990;33.226;-97.150;2024-03-02T01:36:44;16.20;99.90
17740;DHT22;8990;33.226;-97.150;2024-03-02T01:39:13;16.20;99.90
17740;DHT22;8990;33.226;-97.150;2024-03-02T01:41:44;16.10;99.90
17740;DHT22;8990;33.226;-97.150;2024-03-02T01:44:13;16.10;99.90
17740;DHT22;8990;33.226;-97.150;2024-03-02T01:46:42;16.10;99.90
17740;DHT22;8990;33.226;-97.150;2024-03-02T01:49:11;16.10;99.90
17740;DHT22;8990;33.226;-97.150;2024-03-02T01:51:40;16.10;99.90
17740;DHT22;8990;33.226;-97.150;2024-03-02T01:54:09;16.00;99.90
17740;DHT22;8990;33.226;-97.150;2024-03-02T01:56:38;16.00;99.90
17740;DHT22;8990;33.226;-97.150;2024-03-02T01:59:09;16.00;99.90
17740;DHT22;8990;33.226;-97.150;2024-03-02T02:01:40;15.90;99.90
17740;DHT22;8990;33.226;-97.150;2024-03-02T02:04:09;15.90;99.90
17740;DHT22;8990;33.226;-97.150;2024-03-02T02:06:39;15.80;99.90
17740;DHT22;8990;33.226;-97.150;2024-03-02T02:09:07;15.80;99.90
17740;DHT22;8990;33.226;-97.150;2024-03-02T02:11:39;15.70;99.90
17740;DHT22;8990;33.226;-97.150;2024-03-02T02:14:09;15.60;99.90
17740;DHT22;8990;33.226;-97.150;2024-03-02T02:16:38;15.60;99.90
17740;DHT22;8990;33.226;-97.150;2024-03-02T02:19:07;15.60;99.90
17740;DHT22;8990;33.226;-97.150;2024-03-02T02:21:38;15.50;99.90
17740;DHT22;8990;33.226;-97.150;2024-03-02T02:24:10;15.50;99.90
17740;DHT22;8990;33.226;-97.150;2024-03-02T02:26:40;15.50;99.90
17740;DHT22;8990;33.226;-97.150;2024-03-02T02:29:09;15.40;99.90
17740;DHT22;8990;33.226;-97.150;2024-03-02T02:31:38;15.40;99.90
17740;DHT22;8990;33.226;-97.150;2024-03-02T02:34:07;15.30;99.90
17740;DHT22;8990;33.226;-97.150;2024-03-02T02:36:39;15.20;99.90
17740;DHT22;8990;33.226;-97.150;2024-03-02T02:39:10;15.20;99.90
17740;DHT22;8990;33.226;-97.150;2024-03-02T02:41:39;15.20;99.90
17740;DHT22;8990;33.226;-97.150;2024-03-02T02:44:08;15.20;99.90
17740;DHT22;8990;33.226;-97.150;2024-03-02T02:46:39;15.10;99.90
17740;DHT22;8990;33.226;-97.150;2024-03-02T02:49:08;15.10;99.90
17740;DHT22;8990;33.226;-97.150;2024-03-02T02:51:39;15.10;99.90
17740;DHT22;8990;33.226;-97.150;2024-03-02T02:54:08;15.10;99.90
17740;DHT22;8990;33.226;-97.150;2024-03-02T02:56:36;15.10;99.90
17740;DHT22;8990;33.226;-97.150;2024-03-02T02:59:05;15.10;99.90
17740;DHT22;8990;33.226;-97.150;2024-03-02T03:01:34;15.10;99.90
17740;DHT22;8990;33.226;-97.150;2024-03-02T03:04:04;15.00;99.90
17740;DHT22;8990;33.226;-97.150;2024-03-02T03:06:33;15.00;99.90
17740;DHT22;8990;33.226;-97.150;2024-03-02T03:09:04;15.10;99.90
17740;DHT22;8990;33.226;-97.150;2024-03-02T03:11:33;15.10;99.90
17740;DHT22;8990;33.226;-97.150;2024-03-02T03:14:02;15.10;99.90
17740;DHT22;8990;33.226;-97.150;2024-03-02T03:16:32;15.10;99.90
17740;DHT22;8990;33.226;-97.150;2024-03-02T03:19:01;15.10;99.90
17740;DHT22;8990;33.226;-97.150;2024-03-02T03:21:30;15.10;99.90
17740;DHT22;8990;33.226;-97.150;2024-03-02T03:23:59;15.10;99.90
17740;DHT22;8990;33.226;-97.150;2024-03-02T03:26:29;15.10;99.90
17740;DHT22;8990;33.226;-97.150;2024-03-02T03:28:58;15.10;99.90
17740;DHT22;8990;33.226;-97.150;2024-03-02T03:31:29;15.10;99.90
17740;DHT22;8990;33.226;-97.150;2024-03-02T03:33:58;15.10;99.90
17740;DHT22;8990;33.226;-97.150;2024-03-02T03:36:27;15.10;99.90
17740;DHT22;8990;33.226;-97.150;2024-03-02T03:38:56;15.00;99.90
17740;DHT22;8990;33.226;-97.150;2024-03-02T03:41:25;15.00;99.90
17740;DHT22;8990;33.226;-97.150;2024-03-02T03:43:55;15.00;99.90
17740;DHT22;8990;33.226;-97.150;2024-03-02T03:46:25;15.00;99.90
17740;DHT22;8990;33.226;-97.150;2024-03-02T03:48:54;15.00;99.90
17740;DHT22;8990;33.226;-97.150;2024-03-02T03:51:23;15.00;99.90
17740;DHT22;8990;33.226;-97.150;2024-03-02T03:53:52;14.90;99.90
17740;DHT22;8990;33.226;-97.150;2024-03-02T03:56:21;14.90;99.90
17740;DHT22;8990;33.226;-97.150;2024-03-02T03:58:50;14.80;99.90
17740;DHT22;8990;33.226;-97.150;2024-03-02T04:01:21;14.90;99.90
17740;DHT22;8990;33.226;-97.150;2024-03-02T04:03:50;14.80;99.90
17740;DHT22;8990;33.226;-97.150;2024-03-02T04:06:19;14.80;99.90
17740;DHT22;8990;33.226;-97.150;2024-03-02T04:08:49;14.80;99.90
17740;DHT22;8990;33.226;-97.150;2024-03-02T04:11:17;14.70;99.90
17740;DHT22;8990;33.226;-97.150;2024-03-02T04:13:47;14.70;99.90
17740;DHT22;8990;33.226;-97.150;2024-03-02T04:16:16;14.60;99.90
17740;DHT22;8990;33.226;-97.150;2024-03-02T04:18:47;14.60;99.90
17740;DHT22;8990;33.226;-97.150;2024-03-02T04:21:16;14.60;99.90
17740;DHT22;8990;33.226;-97.150;2024-03-02T04:23:45;14.50;99.90
17740;DHT22;8990;33.226;-97.150;2024-03-02T04:26:14;14.50;99.90
17740;DHT22;8990;33.226;-97.150;2024-03-02T04:28:46;14.50;99.90
17740;DHT22;8990;33.226;-97.150;2024-03-02T04:31:15;14.40;99.90
17740;DHT22;8990;33.226;-97.150;2024-03-02T04:33:46;14.40;99.90
17740;DHT22;8990;33.226;-97.150;2024-03-02T04:36:15;14.40;99.90
17740;DHT22;8990;33.226;-97.150;2024-03-02T04:38:45;14.40;99.90
17740;DHT22;8990;33.226;-97.150;2024-03-02T04:41:14;14.40;99.90
17740;DHT22;8990;33.226;-97.150;2024-03-02T04:43:43;14.30;99.90
17740;DHT22;8990;33.226;-97.150;2024-03-02T04:46:12;14.30;99.90
17740;DHT22;8990;33.226;-97.150;2024-03-02T04:48:41;14.30;99.90
17740;DHT22;8990;33.226;-97.150;2024-03-02T04:51:12;14.20;99.90
17740;DHT22;8990;33.226;-97.150;2024-03-02T04:53:41;14.20;99.90
17740;DHT22;8990;33.226;-97.150;2024-03-02T04:56:10;14.20;99.90
17740;DHT22;8990;33.226;-97.150;2024-03-02T04:59:06;14.20;99.90
17740;DHT22;8990;33.226;-97.150;2024-03-02T05:01:34;14.10;99.90
17740;DHT22;8990;33.226;-97.150;2024-03-02T05:04:03;14.10;99.90
17740;DHT22;8990;33.226;-97.150;2024-03-02T05:06:34;14.10;99.90
17740;DHT22;8990;33.226;-97.150;2024-03-02T05:09:03;14.10;99.90
17740;DHT22;8990;33.226;-97.150;2024-03-02T05:11:32;14.00;99.90
17740;DHT22;8990;33.226;-97.150;2024-03-02T05:14:14;14.00;99.90
17740;DHT22;8990;33.226;-97.150;2024-03-02T05:16:43;14.00;99.90
17740;DHT22;8990;33.226;-97.150;2024-03-02T05:19:12;14.00;99.90
17740;DHT22;8990;33.226;-97.150;2024-03-02T05:21:43;13.90;99.90
17740;DHT22;8990;33.226;-97.150;2024-03-02T05:24:12;13.90;99.90
17740;DHT22;8990;33.226;-97.150;2024-03-02T05:26:41;13.90;99.90
17740;DHT22;8990;33.226;-97.150;2024-03-02T05:29:10;13.80;99.90
17740;DHT22;8990;33.226;-97.150;2024-03-02T05:31:39;13.80;99.90
17740;DHT22;8990;33.226;-97.150;2024-03-02T05:34:08;13.80;99.90
17740;DHT22;8990;33.226;-97.150;2024-03-02T05:36:37;13.80;99.90
17740;DHT22;8990;33.226;-97.150;2024-03-02T05:39:08;13.80;99.90
17740;DHT22;8990;33.226;-97.150;2024-03-02T05:41:37;13.70;99.90
17740;DHT22;8990;33.226;-97.150;2024-03-02T05:44:06;13.70;99.90
17740;DHT22;8990;33.226;-97.150;2024-03-02T05:46:35;13.70;99.90
17740;DHT22;8990;33.226;-97.150;2024-03-02T05:49:03;13.60;99.90
17740;DHT22;8990;33.226;-97.150;2024-03-02T05:51:35;13.60;99.90
17740;DHT22;8990;33.226;-97.150;2024-03-02T05:54:04;13.60;99.90
17740;DHT22;8990;33.226;-97.150;2024-03-02T05:56:35;13.60;99.90
17740;DHT22;8990;33.226;-97.150;2024-03-02T05:59:04;13.60;99.90
17740;DHT22;8990;33.226;-97.150;2024-03-02T06:01:39;13.60;99.90
17740;DHT22;8990;33.226;-97.150;2024-03-02T06:04:08;13.60;99.90
17740;DHT22;8990;33.226;-97.150;2024-03-02T06:06:38;13.50;99.90
17740;DHT22;8990;33.226;-97.150;2024-03-02T06:09:07;13.50;99.90
17740;DHT22;8990;33.226;-97.150;2024-03-02T06:11:41;13.50;99.90
17740;DHT22;8990;33.226;-97.150;2024-03-02T06:14:10;13.50;99.90
17740;DHT22;8990;33.226;-97.150;2024-03-02T06:16:39;13.50;99.90
17740;DHT22;8990;33.226;-97.150;2024-03-02T06:19:08;13.40;99.90
17740;DHT22;8990;33.226;-97.150;2024-03-02T06:21:37;13.40;99.90
17740;DHT22;8990;33.226;-97.150;2024-03-02T06:24:07;13.40;99.90
17740;DHT22;8990;33.226;-97.150;2024-03-02T06:26:36;13.40;99.90
17740;DHT22;8990;33.226;-97.150;2024-03-02T06:29:08;13.40;99.90
17740;DHT22;8990;33.226;-97.150;2024-03-02T06:31:37;13.30;99.90
17740;DHT22;8990;33.226;-97.150;2024-03-02T06:34:05;13.30;99.90
17740;DHT22;8990;33.226;-97.150;2024-03-02T06:36:35;13.30;99.90
17740;DHT22;8990;33.226;-97.150;2024-03-02T06:39:04;13.30;99.90
17740;DHT22;8990;33.226;-97.150;2024-03-02T06:41:34;13.30;99.90
17740;DHT22;8990;33.226;-97.150;2024-03-02T06:44:04;13.30;99.90
17740;DHT22;8990;33.226;-97.150;2024-03-02T06:46:35;13.30;99.90
17740;DHT22;8990;33.226;-97.150;2024-03-02T06:49:03;13.20;99.90
17740;DHT22;8990;33.226;-97.150;2024-03-02T06:51:34;13.20;99.90
17740;DHT22;8990;33.226;-97.150;2024-03-02T06:54:04;13.20;99.90
17740;DHT22;8990;33.226;-97.150;2024-03-02T06:56:33;13.20;99.90
17740;DHT22;8990;33.226;-97.150;2024-03-02T06:59:02;13.20;99.90
17740;DHT22;8990;33.226;-97.150;2024-03-02T07:01:30;13.20;99.90
17740;DHT22;8990;33.226;-97.150;2024-03-02T07:04:01;13.20;99.90
17740;DHT22;8990;33.226;-97.150;2024-03-02T07:06:30;13.20;99.90
17740;DHT22;8990;33.226;-97.150;2024-03-02T07:08:58;13.10;99.90
17740;DHT22;8990;33.226;-97.150;2024-03-02T07:11:27;13.20;99.90
17740;DHT22;8990;33.226;-97.150;2024-03-02T07:13:56;13.10;99.90
17740;DHT22;8990;33.226;-97.150;2024-03-02T07:16:25;13.10;99.90
17740;DHT22;8990;33.226;-97.150;2024-03-02T07:18:56;13.10;99.90
17740;DHT22;8990;33.226;-97.150;2024-03-02T07:21:27;13.10;99.90
17740;DHT22;8990;33.226;-97.150;2024-03-02T07:23:56;13.10;99.90
17740;DHT22;8990;33.226;-97.150;2024-03-02T07:26:26;13.00;99.90
17740;DHT22;8990;33.226;-97.150;2024-03-02T07:28:55;13.10;99.90
17740;DHT22;8990;33.226;-97.150;2024-03-02T07:31:24;13.00;99.90
17740;DHT22;8990;33.226;-97.150;2024-03-02T07:33:53;13.10;99.90
17740;DHT22;8990;33.226;-97.150;2024-03-02T07:36:22;13.00;99.90
17740;DHT22;8990;33.226;-97.150;2024-03-02T07:38:52;13.00;99.90
17740;DHT22;8990;33.226;-97.150;2024-03-02T07:41:21;13.00;99.90
17740;DHT22;8990;33.226;-97.150;2024-03-02T07:43:50;12.90;99.90
17740;DHT22;8990;33.226;-97.150;2024-03-02T07:46:19;12.90;99.90
17740;DHT22;8990;33.226;-97.150;2024-03-02T07:48:48;12.90;99.90
17740;DHT22;8990;33.226;-97.150;2024-03-02T07:51:18;12.90;99.90
17740;DHT22;8990;33.226;-97.150;2024-03-02T07:53:47;12.90;99.90
17740;DHT22;8990;33.226;-97.150;2024-03-02T07:56:18;12.80;99.90
17740;DHT22;8990;33.226;-97.150;2024-03-02T07:58:49;12.90;99.90
17740;DHT22;8990;33.226;-97.150;2024-03-02T08:01:17;12.80;99.90
17740;DHT22;8990;33.226;-97.150;2024-03-02T08:03:46;12.80;99.90
17740;DHT22;8990;33.226;-97.150;2024-03-02T08:06:17;12.80;99.90
17740;DHT22;8990;33.226;-97.150;2024-03-02T08:08:48;12.80;99.90
17740;DHT22;8990;33.226;-97.150;2024-03-02T08:11:18;12.80;99.90
17740;DHT22;8990;33.226;-97.150;2024-03-02T08:13:47;12.80;99.90
17740;DHT22;8990;33.226;-97.150;2024-03-02T08:16:16;12.80;99.90
17740;DHT22;8990;33.226;-97.150;2024-03-02T08:18:46;12.80;99.90
17740;DHT22;8990;33.226;-97.150;2024-03-02T08:21:16;12.80;99.90
17740;DHT22;8990;33.226;-97.150;2024-03-02T08:23:45;12.80;99.90
17740;DHT22;8990;33.226;-97.150;2024-03-02T08:26:14;12.70;99.90
17740;DHT22;8990;33.226;-97.150;2024-03-02T08:28:44;12.70;99.90
17740;DHT22;8990;33.226;-97.150;2024-03-02T08:31:13;12.70;99.90
17740;DHT22;8990;33.226;-97.150;2024-03-02T08:33:42;12.60;99.90
17740;DHT22;8990;33.226;-97.150;2024-03-02T08:36:11;12.70;99.90
17740;DHT22;8990;33.226;-97.150;2024-03-02T08:38:40;12.60;99.90
17740;DHT22;8990;33.226;-97.150;2024-03-02T08:41:11;12.60;99.90
17740;DHT22;8990;33.226;-97.150;2024-03-02T08:43:44;12.60;99.90
17740;DHT22;8990;33.226;-97.150;2024-03-02T08:46:13;12.60;99.90
17740;DHT22;8990;33.226;-97.150;2024-03-02T08:48:42;12.60;99.90
17740;DHT22;8990;33.226;-97.150;2024-03-02T08:51:11;12.60;99.90
17740;DHT22;8990;33.226;-97.150;2024-03-02T08:53:40;12.50;99.90
17740;DHT22;8990;33.226;-97.150;2024-03-02T08:56:09;12.50;99.90
17740;DHT22;8990;33.226;-97.150;2024-03-02T08:58:39;12.50;99.90
17740;DHT22;8990;33.226;-97.150;2024-03-02T09:01:10;12.50;99.90
17740;DHT22;8990;33.226;-97.150;2024-03-02T09:03:39;12.40;99.90
17740;DHT22;8990;33.226;-97.150;2024-03-02T09:06:08;12.40;99.90
17740;DHT22;8990;33.226;-97.150;2024-03-02T09:08:37;12.40;99.90
17740;DHT22;8990;33.226;-97.150;2024-03-02T09:11:05;12.40;99.90
17740;DHT22;8990;33.226;-97.150;2024-03-02T09:13:35;12.30;99.90
17740;DHT22;8990;33.226;-97.150;2024-03-02T09:16:05;12.30;99.90
17740;DHT22;8990;33.226;-97.150;2024-03-02T09:18:36;12.30;99.90
17740;DHT22;8990;33.226;-97.150;2024-03-02T09:21:05;12.20;99.90
17740;DHT22;8990;33.226;-97.150;2024-03-02T09:23:34;12.20;99.90
17740;DHT22;8990;33.226;-97.150;2024-03-02T09:26:03;12.20;99.90
17740;DHT22;8990;33.226;-97.150;2024-03-02T09:28:32;12.20;99.90
17740;DHT22;8990;33.226;-97.150;2024-03-02T09:31:01;12.10;99.90
17740;DHT22;8990;33.226;-97.150;2024-03-02T09:33:30;12.10;99.90
17740;DHT22;8990;33.226;-97.150;2024-03-02T09:36:01;12.10;99.90
17740;DHT22;8990;33.226;-97.150;2024-03-02T09:38:31;12.10;99.90
17740;DHT22;8990;33.226;-97.150;2024-03-02T09:41:01;12.10;99.90
17740;DHT22;8990;33.226;-97.150;2024-03-02T09:43:30;12.10;99.90
17740;DHT22;8990;33.226;-97.150;2024-03-02T09:45:59;12.10;99.90
17740;DHT22;8990;33.226;-97.150;2024-03-02T09:48:28;12.00;99.90
17740;DHT22;8990;33.226;-97.150;2024-03-02T09:50:57;12.00;99.90
17740;DHT22;8990;33.226;-97.150;2024-03-02T09:53:31;12.00;99.90
17740;DHT22;8990;33.226;-97.150;2024-03-02T09:56:00;11.90;99.90
17740;DHT22;8990;33.226;-97.150;2024-03-02T09:58:29;11.90;99.90
17740;DHT22;8990;33.226;-97.150;2024-03-02T10:00:58;11.90;99.90
17740;DHT22;8990;33.226;-97.150;2024-03-02T10:03:27;11.90;99.90
17740;DHT22;8990;33.226;-97.150;2024-03-02T10:06:19;11.90;99.90
17740;DHT22;8990;33.226;-97.150;2024-03-02T10:08:51;11.80;99.90
17740;DHT22;8990;33.226;-97.150;2024-03-02T10:11:37;11.80;99.90
17740;DHT22;8990;33.226;-97.150;2024-03-02T10:14:07;11.80;99.90
17740;DHT22;8990;33.226;-97.150;2024-03-02T10:16:37;11.80;99.90
17740;DHT22;8990;33.226;-97.150;2024-03-02T10:19:17;11.80;99.90
17740;DHT22;8990;33.226;-97.150;2024-03-02T10:21:47;11.70;99.90
17740;DHT22;8990;33.226;-97.150;2024-03-02T10:24:18;11.70;99.90
17740;DHT22;8990;33.226;-97.150;2024-03-02T10:26:47;11.70;99.90
17740;DHT22;8990;33.226;-97.150;2024-03-02T10:29:16;11.70;99.90
17740;DHT22;8990;33.226;-97.150;2024-03-02T10:31:46;11.70;99.90
17740;DHT22;8990;33.226;-97.150;2024-03-02T10:34:15;11.70;99.90
17740;DHT22;8990;33.226;-97.150;2024-03-02T10:36:44;11.60;99.90
17740;DHT22;8990;33.226;-97.150;2024-03-02T10:39:14;11.60;99.90
17740;DHT22;8990;33.226;-97.150;2024-03-02T10:41:45;11.60;99.90
17740;DHT22;8990;33.226;-97.150;2024-03-02T10:44:14;11.60;99.90
17740;DHT22;8990;33.226;-97.150;2024-03-02T10:46:46;11.60;99.90
17740;DHT22;8990;33.226;-97.150;2024-03-02T10:49:16;11.60;99.90
17740;DHT22;8990;33.226;-97.150;2024-03-02T10:51:45;11.60;99.90
17740;DHT22;8990;33.226;-97.150;2024-03-02T10:54:14;11.50;99.90
17740;DHT22;8990;33.226;-97.150;2024-03-02T10:56:47;11.50;99.90
17740;DHT22;8990;33.226;-97.150;2024-03-02T10:59:24;11.50;99.90
17740;DHT22;8990;33.226;-97.150;2024-03-02T11:01:56;11.50;99.90
17740;DHT22;8990;33.226;-97.150;2024-03-02T11:04:28;11.50;99.90
17740;DHT22;8990;33.226;-97.150;2024-03-02T11:07:00;11.50;99.90
17740;DHT22;8990;33.226;-97.150;2024-03-02T11:09:32;11.50;99.90
17740;DHT22;8990;33.226;-97.150;2024-03-02T11:12:12;11.50;99.90
17740;DHT22;8990;33.226;-97.150;2024-03-02T11:14:42;11.40;99.90
17740;DHT22;8990;33.226;-97.150;2024-03-02T11:17:13;11.40;99.90
17740;DHT22;8990;33.226;-97.150;2024-03-02T11:19:45;11.40;99.90
17740;DHT22;8990;33.226;-97.150;2024-03-02T11:22:15;11.40;99.90
17740;DHT22;8990;33.226;-97.150;2024-03-02T11:24:48;11.40;99.90
17740;DHT22;8990;33.226;-97.150;2024-03-02T11:28:05;11.40;99.90
17740;DHT22;8990;33.226;-97.150;2024-03-02T11:30:52;11.30;99.90
17740;DHT22;8990;33.226;-97.150;2024-03-02T11:33:25;11.30;99.90
17740;DHT22;8990;33.226;-97.150;2024-03-02T11:35:56;11.30;99.90
17740;DHT22;8990;33.226;-97.150;2024-03-02T11:38:33;11.20;99.90
17740;DHT22;8990;33.226;-97.150;2024-03-02T11:41:05;11.20;99.90
17740;DHT22;8990;33.226;-97.150;2024-03-02T11:43:39;11.30;99.90
17740;DHT22;8990;33.226;-97.150;2024-03-02T11:46:08;11.20;99.90
17740;DHT22;8990;33.226;-97.150;2024-03-02T11:48:39;11.20;99.90
17740;DHT22;8990;33.226;-97.150;2024-03-02T11:51:08;11.20;99.90
17740;DHT22;8990;33.226;-97.150;2024-03-02T11:53:39;11.20;99.90
17740;DHT22;8990;33.226;-97.150;2024-03-02T11:56:10;11.20;99.90
17740;DHT22;8990;33.226;-97.150;2024-03-02T11:58:42;11.20;99.90
17740;DHT22;8990;33.226;-97.150;2024-03-02T12:01:11;11.20;99.90
17740;DHT22;8990;33.226;-97.150;2024-03-02T12:03:41;11.10;99.90
17740;DHT22;8990;33.226;-97.150;2024-03-02T12:06:12;11.10;99.90
17740;DHT22;8990;33.226;-97.150;2024-03-02T12:08:41;11.10;99.90
17740;DHT22;8990;33.226;-97.150;2024-03-02T12:11:13;11.10;99.90
17740;DHT22;8990;33.226;-97.150;2024-03-02T12:13:52;11.10;99.90
17740;DHT22;8990;33.226;-97.150;2024-03-02T12:16:24;11.10;99.90
17740;DHT22;8990;33.226;-97.150;2024-03-02T12:18:54;11.10;99.90
17740;DHT22;8990;33.226;-97.150;2024-03-02T12:21:23;11.00;99.90
17740;DHT22;8990;33.226;-97.150;2024-03-02T12:23:52;11.10;99.90
17740;DHT22;8990;33.226;-97.150;2024-03-02T12:26:22;11.10;99.90
17740;DHT22;8990;33.226;-97.150;2024-03-02T12:28:53;11.10;99.90
17740;DHT22;8990;33.226;-97.150;2024-03-02T12:31:22;11.10;99.90
17740;DHT22;8990;33.226;-97.150;2024-03-02T12:33:52;11.10;99.90
17740;DHT22;8990;33.226;-97.150;2024-03-02T12:36:22;11.00;99.90
17740;DHT22;8990;33.226;-97.150;2024-03-02T12:38:53;11.00;99.90
17740;DHT22;8990;33.226;-97.150;2024-03-02T12:41:23;11.00;99.90
17740;DHT22;8990;33.226;-97.150;2024-03-02T12:43:53;11.00;99.90
17740;DHT22;8990;33.226;-97.150;2024-03-02T12:46:23;11.00;99.90
17740;DHT22;8990;33.226;-97.150;2024-03-02T12:48:52;11.00;99.90
17740;DHT22;8990;33.226;-97.150;2024-03-02T12:51:21;11.00;99.90
17740;DHT22;8990;33.226;-97.150;2024-03-02T12:53:54;11.00;99.90
17740;DHT22;8990;33.226;-97.150;2024-03-02T12:56:24;10.90;99.90
17740;DHT22;8990;33.226;-97.150;2024-03-02T12:58:56;10.90;99.90
17740;DHT22;8990;33.226;-97.150;2024-03-02T13:01:25;10.90;99.90
17740;DHT22;8990;33.226;-97.150;2024-03-02T13:03:54;11.00;99.90
17740;DHT22;8990;33.226;-97.150;2024-03-02T13:06:25;10.90;99.90
17740;DHT22;8990;33.226;-97.150;2024-03-02T13:08:55;11.00;99.90
17740;DHT22;8990;33.226;-97.150;2024-03-02T13:11:24;11.00;99.90
17740;DHT22;8990;33.226;-97.150;2024-03-02T13:13:55;11.00;99.90
17740;DHT22;8990;33.226;-97.150;2024-03-02T13:16:24;11.00;99.90
17740;DHT22;8990;33.226;-97.150;2024-03-02T13:18:53;11.10;99.90
17740;DHT22;8990;33.226;-97.150;2024-03-02T13:21:24;11.10;99.90
17740;DHT22;8990;33.226;-97.150;2024-03-02T13:23:52;11.10;99.90
17740;DHT22;8990;33.226;-97.150;2024-03-02T13:26:21;11.20;99.90
17740;DHT22;8990;33.226;-97.150;2024-03-02T13:28:50;11.20;99.90
17740;DHT22;8990;33.226;-97.150;2024-03-02T13:31:21;11.30;99.90
17740;DHT22;8990;33.226;-97.150;2024-03-02T13:33:50;11.40;99.90
17740;DHT22;8990;33.226;-97.150;2024-03-02T13:36:19;11.40;99.90
17740;DHT22;8990;33.226;-97.150;2024-03-02T13:38:48;11.50;99.90
17740;DHT22;8990;33.226;-97.150;2024-03-02T13:41:17;11.60;99.90
17740;DHT22;8990;33.226;-97.150;2024-03-02T13:43:47;11.60;99.90
17740;DHT22;8990;33.226;-97.150;2024-03-02T13:46:16;11.70;99.90
17740;DHT22;8990;33.226;-97.150;2024-03-02T13:48:47;11.80;99.90
17740;DHT22;8990;33.226;-97.150;2024-03-02T13:51:16;11.80;99.90
17740;DHT22;8990;33.226;-97.150;2024-03-02T13:53:45;11.90;99.90
17740;DHT22;8990;33.226;-97.150;2024-03-02T13:56:14;12.00;99.90
17740;DHT22;8990;33.226;-97.150;2024-03-02T13:58:44;12.00;99.90
17740;DHT22;8990;33.226;-97.150;2024-03-02T14:01:13;12.10;99.90
17740;DHT22;8990;33.226;-97.150;2024-03-02T14:03:41;12.20;99.90
17740;DHT22;8990;33.226;-97.150;2024-03-02T14:06:12;12.30;99.90
17740;DHT22;8990;33.226;-97.150;2024-03-02T14:08:41;12.40;99.90
17740;DHT22;8990;33.226;-97.150;2024-03-02T14:11:11;12.50;99.90
17740;DHT22;8990;33.226;-97.150;2024-03-02T14:13:42;12.60;99.90
17740;DHT22;8990;33.226;-97.150;2024-03-02T14:16:16;12.70;99.90
17740;DHT22;8990;33.226;-97.150;2024-03-02T14:18:45;12.80;99.90
17740;DHT22;8990;33.226;-97.150;2024-03-02T14:21:15;12.80;99.90
17740;DHT22;8990;33.226;-97.150;2024-03-02T14:23:45;12.90;99.90
17740;DHT22;8990;33.226;-97.150;2024-03-02T14:26:13;13.00;99.90
17740;DHT22;8990;33.226;-97.150;2024-03-02T14:28:42;13.10;99.90
17740;DHT22;8990;33.226;-97.150;2024-03-02T14:31:12;13.20;99.90
17740;DHT22;8990;33.226;-97.150;2024-03-02T14:33:40;13.40;99.90
17740;DHT22;8990;33.226;-97.150;2024-03-02T14:36:09;13.50;99.90
17740;DHT22;8990;33.226;-97.150;2024-03-02T14:38:40;13.70;99.90
17740;DHT22;8990;33.226;-97.150;2024-03-02T14:41:09;13.80;99.90
17740;DHT22;8990;33.226;-97.150;2024-03-02T14:43:38;13.90;99.90
17740;DHT22;8990;33.226;-97.150;2024-03-02T14:46:07;14.00;99.90
17740;DHT22;8990;33.226;-97.150;2024-03-02T14:48:36;14.20;99.90
17740;DHT22;8990;33.226;-97.150;2024-03-02T14:51:06;14.40;99.90
17740;DHT22;8990;33.226;-97.150;2024-03-02T14:53:35;14.50;99.90
17740;DHT22;8990;33.226;-97.150;2024-03-02T14:56:07;14.60;99.90
17740;DHT22;8990;33.226;-97.150;2024-03-02T14:58:36;14.80;99.90
17740;DHT22;8990;33.226;-97.150;2024-03-02T15:01:07;14.90;99.90
17740;DHT22;8990;33.226;-97.150;2024-03-02T15:03:38;15.00;99.90
17740;DHT22;8990;33.226;-97.150;2024-03-02T15:06:07;15.10;99.90
17740;DHT22;8990;33.226;-97.150;2024-03-02T15:08:36;15.30;99.90
17740;DHT22;8990;33.226;-97.150;2024-03-02T15:11:10;15.40;99.90
17740;DHT22;8990;33.226;-97.150;2024-03-02T15:13:39;15.70;99.90
17740;DHT22;8990;33.226;-97.150;2024-03-02T15:16:08;15.70;99.90
17740;DHT22;8990;33.226;-97.150;2024-03-02T15:18:37;15.90;99.90
17740;DHT22;8990;33.226;-97.150;2024-03-02T15:21:06;16.00;99.90
17740;DHT22;8990;33.226;-97.150;2024-03-02T15:23:35;16.10;99.90
17740;DHT22;8990;33.226;-97.150;2024-03-02T15:26:05;16.30;99.90
17740;DHT22;8990;33.226;-97.150;2024-03-02T15:28:35;16.40;99.90
17740;DHT22;8990;33.226;-97.150;2024-03-02T15:31:05;16.50;99.90
17740;DHT22;8990;33.226;-97.150;2024-03-02T15:33:33;16.60;99.90